Time;durP1;ratioP1;P1;durP2;ratioP2;P2;SDS_P1;SDS_P2;PMS_P1;PMS_P2;Temp;Humidity;BMP_temperature;BMP_pressure;BME280_temperature;BME280_humidity;BME280_pressure;Samples;Min_cycle;Max_cycle;Signal;HPM_P1;HPM_P2
2021/11/27 00:00:19;;;;;;;11.50;2.42;;;;;;;6.40;81.43;98427.97;5055671;28;20508;-62
2021/11/27 00:02:47;;;;;;;13.50;2.55;;;;;;;6.20;80.96;98426.16;5053899;28;20492;-63
2021/11/27 00:05:16;;;;;;;14.73;2.88;;;;;;;6.23;80.94;98423.53;5056036;28;20428;-63
2021/11/27 00:07:43;;;;;;;11.77;2.72;;;;;;;6.31;81.14;98435.53;5057365;28;20053;-61
2021/11/27 00:10:13;;;;;;;13.05;2.92;;;;;;;6.27;80.98;98427.19;5075407;28;20400;-64
2021/11/27 00:12:41;;;;;;;8.73;2.65;;;;;;;6.39;80.60;98429.13;5057181;28;20057;-64
2021/11/27 00:15:10;;;;;;;9.38;2.58;;;;;;;6.40;80.70;98428.78;5074164;28;20048;-64
2021/11/27 00:17:38;;;;;;;10.20;2.38;;;;;;;6.36;80.24;98422.41;5066344;28;20053;-64
2021/11/27 00:20:09;;;;;;;11.32;2.40;;;;;;;6.32;79.85;98424.25;5056986;28;20059;-65
2021/11/27 00:22:37;;;;;;;13.25;2.83;;;;;;;6.23;80.69;98423.53;5078032;28;20052;-63
2021/11/27 00:25:09;;;;;;;11.65;2.80;;;;;;;6.16;80.32;98423.31;5060001;28;20044;-66
2021/11/27 00:27:37;;;;;;;8.55;2.20;;;;;;;6.18;80.34;98426.50;5060279;28;20041;-63
2021/11/27 00:30:07;;;;;;;12.55;2.50;;;;;;;6.23;80.25;98431.75;5070277;28;20048;-65
2021/11/27 00:32:35;;;;;;;11.77;2.55;;;;;;;6.11;80.21;98429.00;5057460;28;20057;-63
2021/11/27 00:35:04;;;;;;;11.90;2.53;;;;;;;6.06;80.63;98423.75;5059100;28;20053;-64
2021/11/27 00:37:32;;;;;;;;;;;;;;;6.00;80.75;98438.75;5058110;28;20496;-65
2021/11/27 00:40:07;;;;;;;12.88;2.72;;;;;;;5.93;81.31;98435.78;5072371;28;19921;-64
2021/11/27 00:42:47;;;;;;;13.57;2.60;;;;;;;5.77;81.86;98434.81;5078160;28;20512;-65
2021/11/27 00:45:17;;;;;;;13.40;2.58;;;;;;;5.82;81.38;98431.88;5060267;28;20056;-62
2021/11/27 00:47:53;;;;;;;10.05;2.40;;;;;;;5.95;80.64;98428.06;5059533;28;20049;-67
2021/11/27 00:50:34;;;;;;;11.50;2.30;;;;;;;5.99;79.90;98431.72;5057491;28;20053;-66
2021/11/27 00:53:04;;;;;;;12.60;3.10;;;;;;;6.13;80.16;98434.94;5043977;28;20060;-65
2021/11/27 00:55:32;;;;;;;15.25;2.92;;;;;;;5.94;79.75;98456.53;5060769;28;20053;-66
2021/11/27 00:58:00;;;;;;;9.93;2.67;;;;;;;5.90;79.40;98461.06;5058697;28;20409;-64
2021/11/27 01:00:33;;;;;;;10.10;2.30;;;;;;;5.71;80.16;98471.66;5058744;28;20053;-64
2021/11/27 01:03:03;;;;;;;14.00;2.88;;;;;;;5.46;80.69;98459.03;5057346;28;20049;-65
2021/11/27 01:05:32;;;;;;;12.43;2.75;;;;;;;5.52;80.73;98461.25;5057168;28;20397;-64
2021/11/27 01:08:00;;;;;;;12.35;2.10;;;;;;;5.01;79.90;98469.03;5061230;28;20052;-61
2021/11/27 01:10:30;;;;;;;5.43;1.52;;;;;;;4.74;79.21;98470.34;5078297;28;20056;-64
2021/11/27 01:12:57;;;;;;;;;;;;;;;4.90;77.30;98460.44;5050308;28;20048;-63
2021/11/27 01:15:27;;;;;;;6.68;1.00;;;;;;;4.72;76.94;98437.16;5056856;28;20287;-61
2021/11/27 01:17:55;;;;;;;;;;;;;;;5.01;77.12;98423.47;5059225;28;20059;-64
2021/11/27 01:20:30;;;;;;;5.25;0.90;;;;;;;5.05;75.87;98442.69;5058855;28;20352;-63
2021/11/27 01:22:58;;;;;;;3.28;0.90;;;;;;;5.19;76.71;98443.22;5068254;28;20492;-64
2021/11/27 01:25:26;;;;;;;8.00;1.75;;;;;;;5.46;75.48;98442.66;5058630;28;20079;-65
2021/11/27 01:27:53;;;;;;;4.18;1.27;;;;;;;5.39;75.26;98429.56;5056640;28;20045;-62
2021/11/27 01:30:21;;;;;;;4.20;1.20;;;;;;;5.40;75.42;98435.81;5057743;28;20401;-60
2021/11/27 01:32:49;;;;;;;5.13;1.23;;;;;;;5.32;75.46;98420.31;5075889;28;20159;-65
2021/11/27 01:35:22;;;;;;;6.72;1.35;;;;;;;5.22;76.03;98416.06;5060338;28;20071;-64
2021/11/27 01:37:49;;;;;;;5.00;1.10;;;;;;;5.26;76.40;98421.66;5076671;28;20151;-61
2021/11/27 01:40:21;;;;;;;4.68;1.17;;;;;;;5.33;76.61;98425.47;5092028;28;20051;-60
2021/11/27 01:42:48;;;;;;;6.47;1.65;;;;;;;5.56;75.96;98418.47;5077501;28;20048;-65
2021/11/27 01:45:18;;;;;;;9.05;1.90;;;;;;;5.29;76.98;98415.53;5076371;28;20040;-62
2021/11/27 01:47:52;;;;;;;7.57;1.70;;;;;;;5.43;77.79;98416.84;5063396;28;20056;-62
2021/11/27 01:50:23;;;;;;;8.70;1.67;;;;;;;5.33;77.35;98411.00;5056607;28;20053;-63
2021/11/27 01:52:51;;;;;;;12.00;2.15;;;;;;;5.42;77.82;98417.97;5076353;28;20072;-61
2021/11/27 01:55:18;;;;;;;11.80;2.75;;;;;;;5.46;78.04;98413.44;5059829;28;20045;-63
2021/11/27 01:57:46;;;;;;;10.15;2.33;;;;;;;5.50;77.61;98417.09;5075952;28;20063;-61
2021/11/27 02:00:17;;;;;;;7.43;1.90;;;;;;;5.48;77.42;98411.19;5076014;28;20056;-64
2021/11/27 02:02:44;;;;;;;;;;;;;;;5.53;77.95;98408.22;5074744;28;20044;-64
2021/11/27 02:05:12;;;;;;;9.02;1.85;;;;;;;5.37;77.28;98406.47;5075944;28;19928;-64
2021/11/27 02:07:40;;;;;;;8.52;2.10;;;;;;;5.42;77.45;98409.78;5057973;28;20403;-63
2021/11/27 02:10:13;;;;;;;11.77;1.60;;;;;;;5.37;77.27;98409.22;5055622;28;20064;-64
2021/11/27 02:12:43;;;;;;;8.75;2.42;;;;;;;5.47;77.11;98406.84;5040154;28;20075;-60
2021/11/27 02:15:14;;;;;;;10.02;1.92;;;;;;;5.29;77.47;98399.16;5040122;28;20412;-60
2021/11/27 02:17:43;;;;;;;7.22;2.15;;;;;;;5.35;77.38;98404.06;5075451;28;20053;-62
2021/11/27 02:20:14;;;;;;;6.43;1.58;;;;;;;5.30;77.81;98408.94;5056147;28;20047;-63
2021/11/27 02:22:41;;;;;;;5.28;1.40;;;;;;;5.35;77.54;98406.78;5041736;28;20044;-63
2021/11/27 02:25:14;;;;;;;9.25;1.95;;;;;;;5.41;76.52;98396.47;5075531;28;20044;-62
2021/11/27 02:27:44;;;;;;;6.25;1.33;;;;;;;5.30;76.47;98401.53;5077189;28;20056;-61
2021/11/27 02:30:13;;;;;;;;;;;;;;;5.43;76.66;98391.47;5075845;28;20071;-64
2021/11/27 02:32:44;;;;;;;4.53;1.38;;;;;;;5.35;75.71;98386.91;5053001;28;19921;-63
2021/11/27 02:35:12;;;;;;;7.07;1.50;;;;;;;5.28;75.74;98378.47;5055631;28;20460;-65
2021/11/27 02:37:40;;;;;;;7.88;1.60;;;;;;;5.36;76.12;98372.13;5055318;28;20055;-61
2021/11/27 02:40:08;;;;;;;9.00;1.80;;;;;;;5.43;75.30;98366.91;5085172;28;20538;-61
2021/11/27 02:42:36;;;;;;;4.57;1.48;;;;;;;5.28;75.31;98379.25;5067897;28;20067;-61
2021/11/27 02:45:06;;;;;;;6.15;1.63;;;;;;;5.25;75.64;98376.38;5055628;28;20041;-61
2021/11/27 02:47:33;;;;;;;7.50;1.50;;;;;;;5.16;75.44;98365.56;5055118;28;20053;-61
2021/11/27 02:50:02;;;;;;;7.72;1.90;;;;;;;5.26;74.79;98367.09;5054730;28;20045;-63
2021/11/27 02:52:30;;;;;;;6.93;1.15;;;;;;;5.15;75.13;98361.25;5074251;28;20055;-61
2021/11/27 02:54:58;;;;;;;7.28;1.27;;;;;;;5.19;75.50;98361.38;5060083;28;20053;-62
2021/11/27 02:57:27;;;;;;;3.05;1.00;;;;;;;5.18;75.57;98354.28;5055101;28;20075;-62
2021/11/27 02:59:55;;;;;;;5.53;1.40;;;;;;;5.18;74.87;98351.56;5038620;28;20056;-64
2021/11/27 03:02:30;;;;;;;4.70;1.10;;;;;;;5.07;75.74;98340.31;5043459;28;20048;-64
2021/11/27 03:04:58;;;;;;;4.45;1.30;;;;;;;5.15;75.48;98346.78;5074626;28;20068;-61
2021/11/27 03:07:25;;;;;;;7.40;1.38;;;;;;;5.29;75.27;98341.84;5074880;28;20048;-64
2021/11/27 03:09:52;;;;;;;4.15;1.17;;;;;;;5.40;74.53;98330.19;5054840;28;20053;-61
2021/11/27 03:12:20;;;;;;;5.90;1.27;;;;;;;5.37;73.93;98324.59;5056215;28;20045;-65
2021/11/27 03:14:47;;;;;;;8.43;1.63;;;;;;;5.03;74.65;98331.19;5074500;28;20479;-63
2021/11/27 03:17:16;;;;;;;6.40;1.30;;;;;;;4.89;75.51;98338.03;5074372;28;20052;-62
2021/11/27 03:19:44;;;;;;;6.57;1.40;;;;;;;4.99;75.55;98338.44;5058964;28;20516;-61
2021/11/27 03:22:16;;;;;;;5.22;1.17;;;;;;;4.70;76.14;98337.72;5044774;28;20388;-61
2021/11/27 03:24:44;;;;;;;6.82;1.20;;;;;;;4.88;75.40;98337.22;5054529;28;20060;-61
2021/11/27 03:27:14;;;;;;;8.85;1.48;;;;;;;4.97;75.07;98337.97;5054247;28;20041;-62
2021/11/27 03:29:42;;;;;;;4.18;1.33;;;;;;;4.94;75.47;98335.09;5053986;28;20060;-65
2021/11/27 03:32:16;;;;;;;10.15;1.40;;;;;;;4.81;75.89;98338.91;5066570;28;20053;-62
2021/11/27 03:34:54;;;;;;;6.72;1.52;;;;;;;4.78;75.73;98331.41;5054288;28;20049;-64
2021/11/27 03:37:26;;;;;;;7.82;1.50;;;;;;;4.68;76.05;98331.78;5054392;28;20061;-65
2021/11/27 03:39:53;;;;;;;3.88;1.10;;;;;;;4.69;76.35;98336.13;5078770;28;20048;-64
2021/11/27 03:42:21;;;;;;;7.70;1.20;;;;;;;4.67;76.72;98333.75;5091787;28;20055;-61
2021/11/27 03:44:49;;;;;;;6.32;1.50;;;;;;;4.70;76.15;98322.16;5053544;28;20128;-62
2021/11/27 03:47:17;;;;;;;7.93;1.52;;;;;;;4.78;75.46;98326.75;5070994;28;20055;-62
2021/11/27 03:49:45;;;;;;;4.32;1.00;;;;;;;4.77;75.90;98313.44;5053807;28;20057;-61
2021/11/27 03:52:14;;;;;;;7.60;1.10;;;;;;;4.77;75.93;98313.44;5054496;28;20056;-62
2021/11/27 03:54:45;;;;;;;7.50;1.80;;;;;;;4.56;76.15;98314.25;5058231;28;20049;-60
2021/11/27 03:57:13;;;;;;;5.47;1.00;;;;;;;4.61;76.43;98313.25;5053771;28;20045;-60
2021/11/27 03:59:40;;;;;;;5.05;1.55;;;;;;;4.72;76.21;98319.09;5053422;28;20396;-61
2021/11/27 04:02:08;;;;;;;4.75;1.10;;;;;;;4.73;75.91;98307.06;5053725;28;20045;-65
2021/11/27 04:04:38;;;;;;;4.97;1.30;;;;;;;4.62;75.95;98303.16;5074958;28;20040;-64
2021/11/27 04:07:06;;;;;;;6.45;1.00;;;;;;;4.65;76.23;98292.38;5074198;28;20059;-64
2021/11/27 04:09:35;;;;;;;4.35;1.33;;;;;;;4.63;76.21;98296.56;5056348;28;20057;-67
2021/11/27 04:12:03;;;;;;;5.68;1.20;;;;;;;4.54;76.25;98291.19;5054565;28;20377;-67
2021/11/27 04:14:41;;;;;;;8.32;1.42;;;;;;;4.61;76.41;98286.00;5069831;28;20053;-65
2021/11/27 04:17:09;;;;;;;12.30;1.40;;;;;;;4.54;76.54;98277.53;5037458;28;20056;-65
2021/11/27 04:19:36;;;;;;;6.30;1.35;;;;;;;4.68;75.33;98272.63;5067877;28;20049;-65
2021/11/27 04:22:08;;;;;;;8.85;1.38;;;;;;;4.59;75.59;98259.06;5069254;28;20397;-66
2021/11/27 04:24:44;;;;;;;6.75;1.30;;;;;;;4.52;75.92;98253.34;5068384;28;20052;-65
2021/11/27 04:27:11;;;;;;;6.93;1.27;;;;;;;4.68;75.33;98266.34;5053950;28;20053;-64
2021/11/27 04:29:39;;;;;;;10.70;2.28;;;;;;;4.61;75.53;98266.91;5054022;28;20155;-65
2021/11/27 04:32:07;;;;;;;8.68;1.30;;;;;;;4.50;75.27;98258.34;5046522;28;20530;-70
2021/11/27 04:34:34;;;;;;;9.50;1.48;;;;;;;4.64;75.13;98263.50;5046602;28;20076;-64
2021/11/27 04:37:02;;;;;;;8.52;1.40;;;;;;;4.83;74.32;98252.13;5070555;28;20041;-64
2021/11/27 04:39:30;;;;;;;8.13;1.23;;;;;;;4.96;73.48;98253.75;5071625;28;20499;-64
2021/11/27 04:41:57;;;;;;;7.80;1.50;;;;;;;4.79;73.88;98251.19;5095007;28;20082;-64
2021/11/27 04:44:25;;;;;;;9.10;2.05;;;;;;;4.83;73.43;98257.56;5082598;28;20107;-64
2021/11/27 04:46:52;;;;;;;11.65;1.45;;;;;;;4.83;73.86;98273.94;5058613;28;20060;-64
2021/11/27 04:49:20;;;;;;;9.45;1.50;;;;;;;4.71;73.89;98271.94;5053223;28;20053;-64
2021/11/27 04:51:47;;;;;;;7.93;1.33;;;;;;;4.39;74.89;98272.72;5053343;28;20052;-64
2021/11/27 04:54:19;;;;;;;6.35;1.52;;;;;;;4.52;74.61;98286.06;5063556;28;20063;-65
2021/11/27 04:56:47;;;;;;;6.35;1.30;;;;;;;4.57;74.88;98274.94;5058592;28;20052;-64
2021/11/27 04:59:14;;;;;;;7.80;1.60;;;;;;;4.58;75.12;98276.53;5036607;28;20067;-64
2021/11/27 05:01:42;;;;;;;13.95;2.13;;;;;;;4.53;74.83;98259.59;5053385;28;20522;-64
2021/11/27 05:04:10;;;;;;;7.90;1.60;;;;;;;4.72;74.23;98262.66;5045754;28;20048;-65
2021/11/27 05:06:37;;;;;;;5.80;1.50;;;;;;;4.69;74.10;98278.88;5073063;28;20515;-64
2021/11/27 05:09:05;;;;;;;5.32;1.48;;;;;;;4.63;74.16;98274.75;5062864;28;20048;-64
2021/11/27 05:11:32;;;;;;;12.60;2.05;;;;;;;4.65;74.35;98275.22;5057048;28;20052;-64
2021/11/27 05:14:00;;;;;;;8.65;1.35;;;;;;;4.61;74.25;98264.19;5064101;28;20056;-63
2021/11/27 05:16:28;;;;;;;6.40;1.38;;;;;;;4.48;74.39;98257.09;5076460;28;20044;-65
2021/11/27 05:18:55;;;;;;;9.68;1.63;;;;;;;4.40;75.21;98252.50;5068045;28;20045;-64
2021/11/27 05:21:49;;;;;;;7.28;1.55;;;;;;;4.43;74.96;98257.25;5056631;28;20053;-63
2021/11/27 05:24:17;;;;;;;6.57;1.20;;;;;;;4.73;74.39;98247.06;5068997;28;20064;-63
2021/11/27 05:27:15;;;;;;;9.65;1.67;;;;;;;4.60;74.38;98225.22;5076583;28;20044;-62
2021/11/27 05:30:03;;;;;;;8.40;1.55;;;;;;;4.76;74.44;98221.88;5076915;28;20057;-62
2021/11/27 05:32:51;;;;;;;7.30;1.30;;;;;;;4.69;74.10;98208.00;5058796;28;20049;-60
2021/11/27 05:35:28;;;;;;;7.07;1.50;;;;;;;4.87;73.20;98201.22;5057346;28;20060;-61
2021/11/27 05:37:55;;;;;;;6.32;1.40;;;;;;;4.87;73.48;98215.66;5056436;28;20392;-60
2021/11/27 05:40:24;;;;;;;14.50;1.85;;;;;;;4.72;73.60;98204.59;5073102;28;20044;-60
2021/11/27 05:42:51;;;;;;;7.82;1.63;;;;;;;4.77;73.90;98216.09;5096892;28;20071;-61
2021/11/27 05:45:26;;;;;;;11.20;1.48;;;;;;;5.02;73.06;98211.50;5062002;28;20377;-61
2021/11/27 05:47:58;;;;;;;10.20;1.55;;;;;;;4.94;73.36;98213.16;5073654;28;20056;-61
2021/11/27 05:50:33;;;;;;;8.30;2.17;;;;;;;5.04;73.19;98206.50;5075801;28;20440;-61
2021/11/27 05:53:01;;;;;;;10.88;1.85;;;;;;;4.86;73.17;98208.63;5076049;28;20053;-62
2021/11/27 05:55:30;;;;;;;8.82;1.70;;;;;;;5.01;72.99;98204.44;5059513;28;20049;-62
2021/11/27 05:57:58;;;;;;;8.60;1.60;;;;;;;5.01;72.80;98218.06;5056711;28;20541;-61
2021/11/27 06:00:25;;;;;;;7.53;1.70;;;;;;;4.98;72.91;98216.81;5056958;28;20060;-60
2021/11/27 06:02:53;;;;;;;9.93;1.60;;;;;;;5.04;72.91;98212.72;5057006;28;20722;-61
2021/11/27 06:05:20;;;;;;;11.98;1.60;;;;;;;4.81;73.71;98216.22;5057958;28;20049;-62
2021/11/27 06:07:47;;;;;;;9.80;2.28;;;;;;;4.67;74.00;98215.69;5059485;28;20052;-61
2021/11/27 06:10:14;;;;;;;9.40;1.88;;;;;;;4.69;74.10;98219.66;5076011;28;20057;-61
2021/11/27 06:12:42;;;;;;;9.02;2.00;;;;;;;4.80;73.96;98215.41;5077690;28;20052;-65
2021/11/27 06:15:10;;;;;;;11.23;1.95;;;;;;;4.85;73.32;98214.38;5075531;28;20063;-64
2021/11/27 06:17:37;;;;;;;9.27;1.42;;;;;;;4.80;73.54;98220.84;5074881;28;20048;-64
2021/11/27 06:20:05;;;;;;;10.23;2.15;;;;;;;4.99;73.22;98206.69;5058626;28;20048;-65
2021/11/27 06:22:32;;;;;;;8.13;1.60;;;;;;;5.02;72.94;98206.81;5056854;28;20504;-64
2021/11/27 06:25:19;;;;;;;10.52;2.38;;;;;;;4.93;73.35;98199.88;5057119;28;20412;-63
2021/11/27 06:27:47;;;;;;;12.80;2.30;;;;;;;5.15;72.81;98196.72;5055690;28;20072;-62
2021/11/27 06:30:14;;;;;;;10.02;2.10;;;;;;;4.98;72.78;98200.47;5056906;28;20053;-61
2021/11/27 06:32:41;;;;;;;9.60;1.55;;;;;;;5.03;72.92;98197.50;5056557;28;20056;-62
2021/11/27 06:35:08;;;;;;;7.85;1.77;;;;;;;5.12;72.78;98200.13;5057289;28;20056;-62
2021/11/27 06:37:36;;;;;;;13.18;2.10;;;;;;;5.20;72.61;98199.22;5056615;28;20063;-62
2021/11/27 06:40:09;;;;;;;35.30;3.13;;;;;;;5.15;72.42;98199.44;5084985;28;20500;-63
2021/11/27 06:42:49;;;;;;;12.68;1.63;;;;;;;5.17;72.72;98195.25;5095510;28;20059;-64
2021/11/27 06:45:36;;;;;;;10.82;1.60;;;;;;;5.15;72.99;98197.53;5078105;28;20060;-65
2021/11/27 06:48:07;;;;;;;12.65;1.70;;;;;;;5.08;73.25;98200.00;5058995;28;20044;-64
2021/11/27 06:50:34;;;;;;;12.10;1.52;;;;;;;5.11;73.47;98204.78;5075941;28;20071;-63
2021/11/27 06:53:02;;;;;;;9.65;1.73;;;;;;;5.17;73.75;98189.81;5076297;28;20040;-64
2021/11/27 06:55:29;;;;;;;9.57;1.65;;;;;;;5.07;74.97;98186.72;5070481;28;20495;-64
2021/11/27 06:57:56;;;;;;;14.50;1.75;;;;;;;5.00;75.75;98186.47;5066268;28;20051;-65
2021/11/27 07:00:23;;;;;;;7.97;1.80;;;;;;;4.85;76.37;98181.66;5073088;28;20056;-62
2021/11/27 07:03:09;;;;;;;12.10;2.33;;;;;;;4.91;76.20;98178.41;5066989;28;20048;-63
2021/11/27 07:05:55;;;;;;;10.52;1.90;;;;;;;4.92;76.45;98171.78;5073876;28;20532;-61
2021/11/27 07:08:24;;;;;;;6.47;1.42;;;;;;;4.74;77.19;98175.88;5063984;28;20048;-61
2021/11/27 07:10:55;;;;;;;8.23;1.80;;;;;;;4.82;77.65;98171.44;5073569;28;20056;-64
2021/11/27 07:13:24;;;;;;;7.30;1.50;;;;;;;4.72;77.65;98169.13;5055514;28;20045;-65
2021/11/27 07:15:58;;;;;;;11.13;2.28;;;;;;;4.70;77.93;98169.47;5054746;28;20578;-64
2021/11/27 07:18:25;;;;;;;6.85;1.40;;;;;;;4.64;78.16;98180.94;5063012;28;20051;-64
2021/11/27 07:20:52;;;;;;;9.18;1.45;;;;;;;4.65;78.42;98183.31;5054656;28;20572;-62
2021/11/27 07:23:20;;;;;;;4.50;1.50;;;;;;;4.59;78.76;98181.94;5075008;28;20075;-62
2021/11/27 07:25:47;;;;;;;5.25;1.48;;;;;;;4.78;78.33;98179.47;5074652;28;20455;-65
2021/11/27 07:28:23;;;;;;;5.53;1.63;;;;;;;4.84;78.20;98182.81;5059139;28;20073;-65
2021/11/27 07:31:17;;;;;;;5.35;1.60;;;;;;;4.72;78.09;98185.50;5054620;28;20041;-62
2021/11/27 07:33:47;;;;;;;8.40;1.75;;;;;;;4.69;78.19;98188.91;5063190;28;20428;-65
2021/11/27 07:36:15;;;;;;;5.55;1.40;;;;;;;4.85;78.21;98190.63;5063533;28;20048;-62
2021/11/27 07:38:42;;;;;;;6.05;1.83;;;;;;;4.74;77.83;98194.94;5078336;28;20056;-64
2021/11/27 07:41:09;;;;;;;7.50;1.67;;;;;;;4.79;78.01;98197.47;5076852;28;20055;-65
2021/11/27 07:43:37;;;;;;;6.18;1.45;;;;;;;4.64;78.71;98202.75;5069628;28;20404;-64
2021/11/27 07:46:07;;;;;;;5.35;1.63;;;;;;;4.65;78.71;98196.16;5053872;28;20053;-64
2021/11/27 07:49:03;;;;;;;6.75;1.60;;;;;;;4.65;78.51;98198.88;5040361;28;20061;-63
2021/11/27 07:52:03;;;;;;;5.15;1.63;;;;;;;4.80;78.78;98203.69;5073026;28;20061;-62
2021/11/27 07:54:30;;;;;;;8.45;2.10;;;;;;;4.70;78.38;98196.75;5037409;28;20057;-62
2021/11/27 07:56:57;;;;;;;4.07;1.52;;;;;;;4.55;78.55;98202.81;5072259;28;20047;-62
2021/11/27 07:59:25;;;;;;;8.80;2.13;;;;;;;4.62;79.13;98202.28;5075249;28;20056;-61
2021/11/27 08:01:52;;;;;;;4.90;1.33;;;;;;;4.73;78.18;98206.16;5061117;28;20045;-62
2021/11/27 08:04:20;;;;;;;4.15;1.50;;;;;;;4.58;78.34;98213.06;5056983;28;20049;-62
2021/11/27 08:06:47;;;;;;;8.90;2.83;;;;;;;4.63;78.62;98212.84;5057201;28;20067;-61
2021/11/27 08:09:15;;;;;;;4.90;1.60;;;;;;;4.62;79.05;98210.47;5059014;28;20489;-62
2021/11/27 08:11:42;;;;;;;3.83;1.58;;;;;;;4.55;79.01;98214.50;5056174;28;20049;-61
2021/11/27 08:14:09;;;;;;;4.15;1.27;;;;;;;4.59;79.34;98215.44;5069360;28;20407;-60
2021/11/27 08:16:36;;;;;;;7.18;1.83;;;;;;;4.59;79.03;98211.91;5073536;28;20040;-62
2021/11/27 08:19:04;;;;;;;4.07;1.52;;;;;;;4.81;78.72;98202.56;5060618;28;20053;-65
2021/11/27 08:21:31;;;;;;;6.43;1.45;;;;;;;4.78;78.79;98212.22;5054784;28;20049;-65
2021/11/27 08:23:59;;;;;;;5.22;1.10;;;;;;;4.66;78.80;98209.44;5066669;28;20048;-66
2021/11/27 08:26:27;;;;;;;2.75;1.00;;;;;;;4.55;79.31;98209.06;5059047;28;20052;-64
2021/11/27 08:28:55;;;;;;;3.25;1.13;;;;;;;4.47;79.09;98211.88;5074554;28;20048;-64
2021/11/27 08:31:22;;;;;;;5.82;1.00;;;;;;;4.56;79.17;98215.31;5061798;28;20188;-66
2021/11/27 08:33:49;;;;;;;5.70;1.60;;;;;;;4.65;79.08;98209.78;5069228;28;20539;-64
2021/11/27 08:36:17;;;;;;;4.93;2.30;;;;;;;4.74;78.44;98214.03;5074748;28;20487;-64
2021/11/27 08:38:45;;;;;;;5.72;1.30;;;;;;;4.64;78.21;98224.56;5077867;28;20048;-66
2021/11/27 08:41:13;;;;;;;4.93;1.70;;;;;;;4.58;79.15;98223.97;5060109;28;20376;-65
2021/11/27 08:43:41;;;;;;;3.17;1.10;;;;;;;4.55;79.33;98235.50;5063040;28;20048;-64
2021/11/27 08:46:08;;;;;;;4.18;1.38;;;;;;;4.77;81.26;98240.63;5072130;28;20060;-68
2021/11/27 08:48:39;;;;;;;5.88;1.17;;;;;;;5.27;82.80;98232.22;5077668;28;20044;-68
2021/11/27 08:51:08;;;;;;;10.70;4.22;;;;;;;5.78;80.18;98233.50;5082109;28;20113;-66
2021/11/27 08:53:37;;;;;;;4.80;1.50;;;;;;;5.71;79.63;98226.69;5080535;28;20052;-66
2021/11/27 08:56:08;;;;;;;5.32;1.33;;;;;;;5.98;79.92;98227.91;5077159;28;20115;-68
2021/11/27 08:58:36;;;;;;;3.78;1.20;;;;;;;6.89;74.82;98235.28;5077023;28;20036;-65
2021/11/27 09:01:06;;;;;;;7.50;2.35;;;;;;;6.57;72.97;98239.84;5062340;28;20057;-67
2021/11/27 09:03:34;;;;;;;3.55;1.50;;;;;;;6.37;73.27;98232.63;5066843;28;20063;-65
2021/11/27 09:06:02;;;;;;;4.95;1.92;;;;;;;6.17;73.77;98236.31;5067312;28;20491;-68
2021/11/27 09:08:30;;;;;;;6.25;1.65;;;;;;;6.48;73.21;98232.94;5058435;28;20052;-67
2021/11/27 09:10:58;;;;;;;5.25;1.70;;;;;;;6.00;72.67;98227.59;5071247;28;20060;-67
2021/11/27 09:13:26;;;;;;;5.60;1.80;;;;;;;6.10;74.09;98233.38;5078279;28;20127;-67
2021/11/27 09:15:54;;;;;;;6.13;1.20;;;;;;;6.05;74.24;98232.81;5061586;28;20060;-66
2021/11/27 09:18:21;;;;;;;3.70;1.20;;;;;;;5.96;74.11;98238.41;5057969;28;20479;-64
2021/11/27 09:20:48;;;;;;;10.73;3.00;;;;;;;5.91;74.90;98241.34;5060495;28;20057;-66
2021/11/27 09:23:16;;;;;;;8.38;3.35;;;;;;;6.15;75.51;98251.47;5058105;28;20057;-66
2021/11/27 09:25:43;;;;;;;6.05;1.33;;;;;;;6.54;74.40;98256.97;5059448;28;20068;-67
2021/11/27 09:28:10;;;;;;;3.42;1.42;;;;;;;6.13;73.09;98251.81;5072730;28;20068;-64
2021/11/27 09:30:37;;;;;;;3.92;1.60;;;;;;;7.77;74.42;98245.78;5080005;28;20059;-66
2021/11/27 09:33:05;;;;;;;9.23;1.17;;;;;;;8.82;68.78;98248.16;5098478;28;20051;-65
2021/11/27 09:35:33;;;;;;;4.72;0.98;;;;;;;9.74;66.28;98242.41;5098146;28;20040;-64
2021/11/27 09:38:01;;;;;;;4.53;1.08;;;;;;;8.89;63.88;98255.75;5092306;28;20048;-64
2021/11/27 09:40:36;;;;;;;3.85;1.20;;;;;;;9.93;64.83;98249.78;5094903;28;20051;-64
2021/11/27 09:43:05;;;;;;;4.50;1.27;;;;;;;9.96;63.72;98255.34;5097090;28;20055;-64
2021/11/27 09:45:33;;;;;;;5.72;1.38;;;;;;;9.72;64.67;98271.41;5076149;28;20402;-66
2021/11/27 09:48:02;;;;;;;3.78;1.10;;;;;;;10.01;63.60;98268.75;5062628;28;20053;-66
2021/11/27 09:50:29;;;;;;;6.30;1.30;;;;;;;9.56;63.83;98273.50;5056219;28;20057;-65
2021/11/27 09:52:57;;;;;;;2.47;1.00;;;;;;;9.85;63.92;98264.59;5056046;28;20493;-65
2021/11/27 09:55:24;;;;;;;7.05;1.15;;;;;;;9.80;64.16;98267.63;5056734;28;20060;-65
2021/11/27 09:57:52;;;;;;;2.10;0.90;;;;;;;9.81;63.29;98271.97;5057274;28;20060;-64
2021/11/27 10:00:20;;;;;;;2.45;1.00;;;;;;;10.15;63.17;98273.72;5057010;28;20512;-64
2021/11/27 10:02:54;;;;;;;5.28;1.10;;;;;;;9.62;63.86;98278.34;5066838;28;20056;-66
2021/11/27 10:05:23;;;;;;;5.38;1.45;;;;;;;9.90;63.96;98278.78;5059994;28;20060;-64
2021/11/27 10:07:52;;;;;;;3.00;1.00;;;;;;;10.11;62.08;98270.13;5070330;28;20056;-65
2021/11/27 10:10:20;;;;;;;3.00;1.05;;;;;;;9.69;64.01;98275.69;5039285;28;20049;-65
2021/11/27 10:12:48;;;;;;;2.60;1.00;;;;;;;10.00;62.73;98283.69;5057251;28;20132;-63
2021/11/27 10:15:17;;;;;;;3.03;1.00;;;;;;;10.21;64.04;98280.50;5056767;28;20508;-63
2021/11/27 10:17:44;;;;;;;7.35;0.90;;;;;;;10.26;63.02;98282.94;5054059;28;20310;-63
2021/11/27 10:20:14;;;;;;;6.80;1.15;;;;;;;10.02;62.97;98283.31;5056526;28;20056;-64
2021/11/27 10:22:43;;;;;;;2.55;0.90;;;;;;;10.24;63.66;98274.25;5044005;28;20056;-63
2021/11/27 10:25:31;;;;;;;4.43;1.00;;;;;;;10.39;64.01;98284.28;5057145;28;20056;-63
2021/11/27 10:28:13;;;;;;;3.72;1.10;;;;;;;9.80;62.92;98281.34;5071846;28;20451;-64
2021/11/27 10:30:51;;;;;;;;;;;;;;;10.01;64.02;98285.28;5082137;28;20048;-64
2021/11/27 10:33:19;;;;;;;5.20;1.95;;;;;;;10.60;64.42;98289.34;5057376;28;19991;-63
2021/11/27 10:35:51;;;;;;;10.85;5.75;;;;;;;10.33;63.10;98272.03;5058810;28;20053;-64
2021/11/27 10:38:18;;;;;;;4.78;1.00;;;;;;;9.33;66.01;98278.19;5059006;28;20052;-66
2021/11/27 10:40:59;;;;;;;3.22;0.98;;;;;;;9.76;66.27;98286.03;5056595;28;20063;-65
2021/11/27 10:43:27;;;;;;;5.00;1.17;;;;;;;10.38;63.20;98277.22;5056280;28;20049;-63
2021/11/27 10:46:25;;;;;;;6.60;1.00;;;;;;;9.93;65.06;98285.53;5060452;28;20048;-64
2021/11/27 10:48:52;;;;;;;4.72;1.23;;;;;;;9.85;67.29;98281.84;5053564;28;20053;-63
2021/11/27 10:51:21;;;;;;;7.28;1.27;;;;;;;10.20;64.94;98276.94;5071387;28;20059;-62
2021/11/27 10:53:56;;;;;;;5.40;2.35;;;;;;;10.09;64.94;98269.72;5056177;28;20052;-67
2021/11/27 10:56:47;;;;;;;2.97;1.35;;;;;;;10.11;63.75;98267.38;5058470;28;20072;-66
2021/11/27 10:59:16;;;;;;;6.32;1.70;;;;;;;9.99;64.93;98275.78;5038763;28;20076;-64
2021/11/27 11:02:10;;;;;;;2.83;1.00;;;;;;;10.66;63.25;98274.06;5061509;28;20389;-67
2021/11/27 11:04:41;;;;;;;3.38;1.35;;;;;;;10.69;62.13;98263.09;5057088;28;20052;-66
2021/11/27 11:07:28;;;;;;;4.30;1.20;;;;;;;10.35;63.12;98268.91;5056747;28;20055;-66
2021/11/27 11:10:06;;;;;;;5.45;1.00;;;;;;;9.62;61.22;98280.28;5081078;28;20055;-67
2021/11/27 11:12:36;;;;;;;9.10;1.10;;;;;;;10.01;64.51;98279.78;5096280;28;20251;-68
2021/11/27 11:15:11;;;;;;;3.15;1.40;;;;;;;10.52;62.58;98282.94;5087809;28;20037;-67
2021/11/27 11:17:40;;;;;;;4.20;1.45;;;;;;;10.68;62.54;98278.03;5068899;28;20044;-69
2021/11/27 11:20:30;;;;;;;4.57;1.10;;;;;;;10.45;65.32;98282.81;5057697;28;20503;-67
2021/11/27 11:23:11;;;;;;;3.65;1.30;;;;;;;9.99;62.67;98286.78;5056052;28;20439;-67
2021/11/27 11:25:51;;;;;;;5.78;1.30;;;;;;;10.38;64.45;98273.66;5061962;28;20057;-67
2021/11/27 11:28:19;;;;;;;3.53;1.10;;;;;;;10.84;62.83;98272.34;5054203;28;20071;-69
2021/11/27 11:30:55;;;;;;;5.18;1.13;;;;;;;10.69;60.89;98285.13;5055811;28;20037;-67
2021/11/27 11:33:26;;;;;;;3.28;0.98;;;;;;;10.76;62.55;98287.97;5055770;28;20053;-64
2021/11/27 11:35:53;;;;;;;5.85;2.47;;;;;;;10.60;63.63;98287.34;5055138;28;20045;-62
2021/11/27 11:38:21;;;;;;;3.80;1.10;;;;;;;10.57;63.23;98285.34;5055236;28;20053;-62
2021/11/27 11:40:48;;;;;;;3.17;0.93;;;;;;;10.15;63.66;98290.22;5074140;28;20529;-66
2021/11/27 11:43:16;;;;;;;5.22;1.50;;;;;;;9.92;62.98;98300.44;5069289;28;20424;-67
2021/11/27 11:45:43;;;;;;;6.13;1.83;;;;;;;10.78;64.08;98291.16;5075530;28;20523;-66
2021/11/27 11:48:23;;;;;;;3.15;1.10;;;;;;;10.44;64.18;98289.50;5074819;28;20052;-68
2021/11/27 11:51:23;;;;;;;4.82;1.30;;;;;;;10.86;61.46;98290.06;5094224;28;20495;-68
2021/11/27 11:53:55;;;;;;;;;;;;;;;10.35;62.12;98285.41;5096131;28;20048;-68
2021/11/27 11:56:31;;;;;;;4.57;1.23;;;;;;;10.63;61.84;98291.34;5062154;28;20404;-69